Time;durP1;ratioP1;P1;durP2;ratioP2;P2;SDS_P1;SDS_P2;PMS_P1;PMS_P2;Temp;Humidity;BMP_temperature;BMP_pressure;BME280_temperature;BME280_humidity;BME280_pressure;Samples;Min_cycle;Max_cycle;Signal;HPM_P1;HPM_P2
2022/05/18 00:00:28;;;;;;;2.47;0.97;;;;;;;9.04;100.00;99426.23;1720375;81;21093;-48
2022/05/18 00:02:58;;;;;;;1.93;0.60;;;;;;;9.02;100.00;99423.62;1724402;81;20895;-48
2022/05/18 00:05:24;;;;;;;4.00;0.70;;;;;;;9.00;100.00;99424.66;1726521;81;20966;-47
2022/05/18 00:07:51;;;;;;;0.80;0.50;;;;;;;8.97;100.00;99420.77;1725745;81;21053;-47
2022/05/18 00:10:19;;;;;;;0.97;0.50;;;;;;;8.94;100.00;99424.92;1724621;81;20904;-48
2022/05/18 00:12:46;;;;;;;3.70;0.60;;;;;;;8.91;100.00;99421.06;1725938;81;20939;-48
2022/05/18 00:15:14;;;;;;;4.03;1.10;;;;;;;8.87;100.00;99420.78;1729025;81;21516;-46
2022/05/18 00:17:41;;;;;;;3.77;1.20;;;;;;;8.83;100.00;99421.89;1723665;81;20947;-47
2022/05/18 00:20:10;;;;;;;6.77;1.43;;;;;;;8.80;100.00;99427.38;1724128;81;21457;-47
2022/05/18 00:22:48;;;;;;;7.93;2.23;;;;;;;8.76;100.00;99433.38;1724926;81;21014;-48
2022/05/18 00:25:15;;;;;;;15.47;4.57;;;;;;;8.72;100.00;99438.00;1725320;81;21367;-47
2022/05/18 00:27:43;;;;;;;22.17;8.37;;;;;;;8.69;100.00;99426.06;1724387;81;21458;-46
2022/05/18 00:30:10;;;;;;;18.07;8.27;;;;;;;8.65;100.00;99434.34;1688632;83;20954;-47
2022/05/18 00:32:38;;;;;;;22.73;8.97;;;;;;;8.60;100.00;99430.97;1729007;81;21294;-47
2022/05/18 00:35:07;;;;;;;29.40;11.50;;;;;;;8.53;100.00;99437.09;1728558;81;20978;-48
2022/05/18 00:37:33;;;;;;;31.30;11.80;;;;;;;8.49;100.00;99447.57;1723507;81;21445;-48
2022/05/18 00:40:00;;;;;;;32.47;13.03;;;;;;;8.46;100.00;99440.98;1726587;81;20895;-48
2022/05/18 00:42:27;;;;;;;33.03;11.47;;;;;;;8.43;100.00;99445.60;1717381;81;20919;-48
2022/05/18 00:44:55;;;;;;;27.47;12.80;;;;;;;8.40;100.00;99446.64;1726318;81;21611;-48
2022/05/18 00:47:22;;;;;;;28.27;11.43;;;;;;;8.40;100.00;99451.13;1722538;81;21807;-49
2022/05/18 00:49:56;;;;;;;31.13;11.70;;;;;;;8.38;100.00;99455.21;1725165;81;21037;-47
2022/05/18 00:52:28;;;;;;;19.80;9.55;;;;;;;8.35;100.00;99453.99;1718431;81;21555;-48
2022/05/18 00:54:55;;;;;;;18.57;7.07;;;;;;;8.35;100.00;99453.99;1724775;81;20919;-47
2022/05/18 00:57:26;;;;;;;18.90;6.33;;;;;;;8.32;100.00;99457.70;1726091;81;21094;-49
2022/05/18 01:00:02;;;;;;;18.47;5.77;;;;;;;8.27;100.00;99456.11;1727744;81;20942;-47
2022/05/18 01:02:32;;;;;;;11.87;4.07;;;;;;;8.24;100.00;99457.60;1725804;81;20902;-49
2022/05/18 01:05:00;;;;;;;9.80;3.77;;;;;;;8.19;100.00;99459.13;1724410;81;20959;-47
2022/05/18 01:07:30;;;;;;;10.53;3.17;;;;;;;8.16;100.00;99459.74;1726271;81;21339;-47
2022/05/18 01:09:56;;;;;;;8.00;2.10;;;;;;;8.13;100.00;99459.39;1727519;81;21194;-47
2022/05/18 01:12:22;;;;;;;7.07;2.07;;;;;;;8.10;100.00;99460.86;1725719;81;20992;-49
2022/05/18 01:14:59;;;;;;;7.27;1.90;;;;;;;8.09;100.00;99464.94;1722729;81;21062;-48
2022/05/18 01:17:29;;;;;;;6.77;1.90;;;;;;;8.04;100.00;99466.95;1726191;81;20923;-47
2022/05/18 01:19:58;;;;;;;6.50;1.87;;;;;;;7.97;100.00;99460.52;1699837;82;20978;-47
2022/05/18 01:22:50;;;;;;;9.53;2.07;;;;;;;7.93;100.00;99462.91;1724392;81;21089;-48
2022/05/18 01:25:47;;;;;;;8.87;2.23;;;;;;;7.91;100.00;99470.64;1723452;81;21031;-48
2022/05/18 01:28:13;;;;;;;11.13;1.83;;;;;;;7.88;100.00;99469.41;1721891;81;21687;-48
2022/05/18 01:30:45;;;;;;;5.30;1.70;;;;;;;7.86;100.00;99476.17;1725623;81;21057;-48
2022/05/18 01:33:12;;;;;;;7.83;2.00;;;;;;;7.82;100.00;99469.67;1725619;81;20927;-48
2022/05/18 01:35:41;;;;;;;5.53;1.47;;;;;;;7.74;100.00;99483.86;1724601;81;21567;-46
2022/05/18 01:38:12;;;;;;;5.90;1.60;;;;;;;7.69;100.00;99481.81;1725554;81;20927;-47
2022/05/18 01:40:52;;;;;;;8.83;2.30;;;;;;;7.60;100.00;99484.40;1725419;81;21272;-48
2022/05/18 01:43:47;;;;;;;14.27;1.93;;;;;;;7.53;100.00;99478.89;1711204;81;21085;-47
2022/05/18 01:46:15;;;;;;;8.50;2.65;;;;;;;7.47;100.00;99482.70;1726430;81;27269;-48
2022/05/18 01:48:51;;;;;;;15.97;4.30;;;;;;;7.39;100.00;99487.48;1724915;81;21552;-46
2022/05/18 01:51:39;;;;;;;15.57;4.80;;;;;;;7.34;100.00;99489.45;1721412;81;21078;-49
2022/05/18 01:54:06;;;;;;;16.10;6.43;;;;;;;7.30;100.00;99484.30;1724133;81;21066;-50
2022/05/18 01:56:32;;;;;;;16.13;6.83;;;;;;;7.25;100.00;99495.63;1725649;81;21106;-48
2022/05/18 01:58:59;;;;;;;19.70;7.00;;;;;;;7.18;100.00;99491.86;1726667;81;21401;-43
2022/05/18 02:01:26;;;;;;;20.60;8.03;;;;;;;7.14;100.00;99500.08;1723618;81;21132;-43
2022/05/18 02:03:53;;;;;;;28.10;10.00;;;;;;;7.07;100.00;99506.11;1723245;81;21588;-45
2022/05/18 02:06:19;;;;;;;21.47;8.83;;;;;;;6.99;100.00;99503.31;1723057;81;21089;-44
2022/05/18 02:08:46;;;;;;;23.10;8.23;;;;;;;6.92;100.00;99502.67;1722588;81;21471;-45
2022/05/18 02:11:15;;;;;;;22.83;7.67;;;;;;;6.87;100.00;99506.47;1726835;81;20974;-47
2022/05/18 02:13:43;;;;;;;21.47;7.87;;;;;;;6.83;100.00;99500.34;1726427;81;21047;-46
2022/05/18 02:16:09;;;;;;;14.17;6.73;;;;;;;6.77;100.00;99509.48;1726200;81;20943;-46
2022/05/18 02:18:36;;;;;;;18.80;6.80;;;;;;;6.73;100.00;99510.96;1726790;81;21452;-50
2022/05/18 02:21:05;;;;;;;21.30;7.43;;;;;;;6.70;100.00;99505.75;1725398;81;20985;-46
2022/05/18 02:23:32;;;;;;;16.17;5.67;;;;;;;6.67;100.00;99505.38;1724385;81;21072;-47
2022/05/18 02:26:02;;;;;;;13.43;5.27;;;;;;;6.65;100.00;99508.57;1733444;81;21139;-45
2022/05/18 02:28:30;;;;;;;14.97;5.87;;;;;;;6.61;100.00;99512.77;1691352;82;21060;-46
2022/05/18 02:30:56;;;;;;;22.33;6.93;;;;;;;6.58;100.00;99511.52;1726968;81;21440;-46
2022/05/18 02:33:22;;;;;;;19.20;5.37;;;;;;;6.54;100.00;99510.78;1733575;81;21231;-44
2022/05/18 02:35:49;;;;;;;17.47;5.73;;;;;;;6.52;100.00;99513.97;1730861;81;21127;-45
2022/05/18 02:38:15;;;;;;;15.47;5.43;;;;;;;6.48;100.00;99522.13;1734563;81;21771;-43
2022/05/18 02:40:42;;;;;;;15.53;6.27;;;;;;;6.44;100.00;99513.37;1731414;81;21080;-45
2022/05/18 02:43:09;;;;;;;16.73;4.17;;;;;;;6.39;100.00;99513.51;1731121;81;21061;-46
2022/05/18 02:45:36;;;;;;;11.30;4.53;;;;;;;6.38;100.00;99520.27;1734810;81;21420;-46
2022/05/18 02:48:03;;;;;;;11.40;3.87;;;;;;;6.34;100.00;99518.16;1728464;81;20969;-46
2022/05/18 02:50:32;;;;;;;15.87;3.83;;;;;;;6.31;100.00;99518.71;1727873;81;21152;-47
2022/05/18 02:53:00;;;;;;;10.83;3.70;;;;;;;6.24;100.00;99518.52;1733380;81;20979;-48
2022/05/18 02:58:11;;;;;;;7.33;2.85;;;;;;;6.16;100.00;99525.47;1735661;81;20919;-47
2022/05/18 03:00:37;;;;;;;14.83;4.37;;;;;;;6.13;100.00;99529.56;1734509;81;20875;-48
2022/05/18 03:03:06;;;;;;;13.33;4.90;;;;;;;6.10;100.00;99523.01;1733931;81;20918;-48
2022/05/18 03:05:32;;;;;;;15.73;5.17;;;;;;;6.10;100.00;99523.01;1731285;81;20926;-43
2022/05/18 03:07:58;;;;;;;19.83;6.33;;;;;;;6.10;100.00;99525.69;1736093;81;20966;-45
2022/05/18 03:10:25;;;;;;;22.60;7.63;;;;;;;6.10;100.00;99531.48;1733097;81;20946;-48
2022/05/18 03:12:52;;;;;;;18.07;7.00;;;;;;;6.11;100.00;99529.23;1733678;81;21426;-43
2022/05/18 03:15:19;;;;;;;23.20;8.43;;;;;;;6.10;100.00;99524.34;1733656;81;21012;-44
2022/05/18 03:17:45;;;;;;;34.13;9.50;;;;;;;6.13;100.00;99532.70;1735187;81;21231;-45
2022/05/18 03:23:33;;;;;;;24.97;10.47;;;;;;;6.15;100.00;99532.19;1727455;81;21560;-44
2022/05/18 03:25:24;;;;;;;35.23;10.80;;;;;;;6.21;100.00;99539.53;1725347;81;21080;-44
2022/05/18 03:27:50;;;;;;;30.83;12.07;;;;;;;6.22;100.00;99542.62;1723396;81;21137;-46
2022/05/18 03:30:17;;;;;;;30.50;12.23;;;;;;;6.23;100.00;99540.36;1722448;81;21039;-45
2022/05/18 03:32:44;;;;;;;29.77;11.53;;;;;;;6.25;100.00;99541.66;1723574;81;21560;-47
2022/05/18 03:35:10;;;;;;;27.30;11.13;;;;;;;6.28;100.00;99544.23;1726480;81;21038;-49
2022/05/18 03:37:37;;;;;;;21.57;9.20;;;;;;;6.30;100.00;99547.70;1722260;81;21073;-50
2022/05/18 03:40:05;;;;;;;26.23;9.97;;;;;;;6.31;100.00;99544.11;1721777;81;21146;-49
2022/05/18 03:42:32;;;;;;;30.20;9.93;;;;;;;6.34;100.00;99556.05;1725204;81;21773;-47
2022/05/18 03:44:58;;;;;;;28.30;9.77;;;;;;;6.34;100.00;99548.90;1726285;81;21093;-47
2022/05/18 03:47:25;;;;;;;28.17;9.60;;;;;;;6.33;100.00;99552.95;1722168;81;21072;-47
2022/05/18 03:49:52;;;;;;;19.07;8.27;;;;;;;6.29;100.00;99556.22;1722594;81;21046;-43
2022/05/18 03:52:19;;;;;;;16.70;6.80;;;;;;;6.24;100.00;99546.58;1722647;81;21189;-43
2022/05/18 03:54:46;;;;;;;17.87;5.50;;;;;;;6.23;100.00;99555.52;1723857;81;21046;-45
2022/05/18 03:57:12;;;;;;;19.33;6.90;;;;;;;6.23;100.00;99552.39;1724926;81;21082;-47
2022/05/18 03:59:40;;;;;;;20.97;7.10;;;;;;;6.28;100.00;99553.59;1722943;81;21064;-48
2022/05/18 04:02:07;;;;;;;18.10;6.47;;;;;;;6.31;100.00;99553.47;1726025;81;21484;-48
2022/05/18 04:04:34;;;;;;;15.93;5.07;;;;;;;6.39;100.00;99555.41;1723587;81;22171;-44
2022/05/18 04:07:01;;;;;;;18.87;5.80;;;;;;;6.44;100.00;99555.68;1722984;81;21089;-47
2022/05/18 04:09:27;;;;;;;12.23;4.87;;;;;;;6.50;100.00;99557.72;1723399;81;21090;-49
2022/05/18 04:11:53;;;;;;;14.00;4.40;;;;;;;6.55;100.00;99561.13;1726321;81;21116;-44
2022/05/18 04:14:20;;;;;;;17.33;5.03;;;;;;;6.59;100.00;99559.61;1723981;81;21025;-48
2022/05/18 04:16:49;;;;;;;15.97;5.13;;;;;;;6.64;100.00;99565.66;1722630;81;21520;-50
2022/05/18 04:19:16;;;;;;;10.83;4.13;;;;;;;6.66;100.00;99566.95;1722166;81;21039;-47
2022/05/18 04:21:43;;;;;;;11.80;3.70;;;;;;;6.66;100.00;99572.30;1721851;81;21129;-47
2022/05/18 04:24:10;;;;;;;13.23;3.83;;;;;;;6.67;100.00;99568.70;1719716;81;21368;-49
2022/05/18 04:26:40;;;;;;;13.07;4.37;;;;;;;6.68;100.00;99572.66;1719040;81;21360;-44
2022/05/18 04:29:06;;;;;;;10.73;3.17;;;;;;;6.72;100.00;99570.27;1724345;81;21844;-50
2022/05/18 04:31:33;;;;;;;8.90;3.73;;;;;;;6.78;100.00;99573.22;1720217;81;21086;-45
2022/05/18 04:33:59;;;;;;;15.13;3.20;;;;;;;6.84;100.00;99577.88;1722603;81;20942;-45
2022/05/18 04:36:26;;;;;;;10.10;4.27;;;;;;;6.93;100.00;99570.45;1724754;81;21602;-46
2022/05/18 04:38:52;;;;;;;12.50;4.60;;;;;;;7.00;100.00;99575.98;1721757;81;22202;-46
2022/05/18 04:41:19;;;;;;;16.53;4.83;;;;;;;7.05;100.00;99582.05;1723812;81;21101;-46
2022/05/18 04:43:47;;;;;;;18.93;5.10;;;;;;;7.05;100.00;99579.38;1722496;81;21097;-45
2022/05/18 04:46:14;;;;;;;15.30;4.20;;;;;;;7.02;100.00;99576.34;1720395;81;21092;-48
2022/05/18 04:48:41;;;;;;;9.67;3.43;;;;;;;7.01;100.00;99585.30;1722373;81;21058;-46
2022/05/18 04:51:08;;;;;;;12.30;4.20;;;;;;;7.01;100.00;99579.94;1724997;81;21093;-44
2022/05/18 04:53:34;;;;;;;11.53;2.93;;;;;;;6.99;100.00;99575.56;1721530;81;21156;-45
2022/05/18 04:56:03;;;;;;;6.97;1.90;;;;;;;6.96;100.00;99577.91;1721033;81;21049;-47
2022/05/18 04:58:30;;;;;;;7.93;1.83;;;;;;;6.98;100.00;99582.72;1721932;81;21052;-47
2022/05/18 05:00:59;;;;;;;7.93;2.27;;;;;;;7.02;100.00;99575.00;1720194;81;21048;-51
2022/05/18 05:03:26;;;;;;;7.10;2.00;;;;;;;7.08;100.00;99576.57;1722274;81;21074;-51
2022/05/18 05:05:52;;;;;;;5.50;1.77;;;;;;;7.15;100.00;99582.97;1723001;81;21149;-50
2022/05/18 05:08:20;;;;;;;5.93;1.83;;;;;;;7.24;100.00;99575.06;1723226;81;21149;-48
2022/05/18 05:10:46;;;;;;;4.40;1.30;;;;;;;7.33;100.00;99573.38;1725976;82;21660;-46
2022/05/18 05:13:13;;;;;;;3.70;1.27;;;;;;;7.38;100.00;99572.77;1708851;82;21043;-44
2022/05/18 05:15:39;;;;;;;3.50;1.80;;;;;;;7.43;100.00;99572.11;1726136;81;21045;-46
2022/05/18 05:18:07;;;;;;;4.17;1.20;;;;;;;7.44;100.00;99573.86;1724435;81;22424;-46
2022/05/18 05:20:34;;;;;;;4.87;1.53;;;;;;;7.45;100.00;99582.77;1729630;81;21041;-45
2022/05/18 05:23:00;;;;;;;7.60;1.17;;;;;;;7.45;100.00;99583.64;1727530;81;21326;-45
2022/05/18 05:25:27;;;;;;;1.90;0.80;;;;;;;7.42;100.00;99590.44;1729075;81;21803;-45
2022/05/18 05:27:55;;;;;;;2.73;1.03;;;;;;;7.40;100.00;99585.60;1722686;81;21077;-47
2022/05/18 05:30:22;;;;;;;2.97;0.90;;;;;;;7.42;100.00;99585.55;1723647;81;22368;-46
2022/05/18 05:32:48;;;;;;;4.30;0.80;;;;;;;7.47;100.00;99598.32;1726698;81;20897;-46
2022/05/18 05:35:14;;;;;;;4.37;0.83;;;;;;;7.51;100.00;99598.13;1727722;81;20919;-48
2022/05/18 05:37:40;;;;;;;4.87;0.70;;;;;;;7.56;100.00;99601.52;1726992;81;21400;-47
2022/05/18 05:40:08;;;;;;;1.67;0.60;;;;;;;7.57;100.00;99603.73;1730707;81;21025;-51
2022/05/18 05:42:35;;;;;;;2.07;0.70;;;;;;;7.57;100.00;99609.09;1725175;81;21117;-45
2022/05/18 05:45:04;;;;;;;1.30;0.87;;;;;;;7.54;100.00;99603.38;1708485;82;21093;-47
2022/05/18 05:47:31;;;;;;;2.53;0.70;;;;;;;7.54;100.00;99607.40;1721438;81;21291;-46
2022/05/18 05:49:57;;;;;;;3.07;0.80;;;;;;;7.53;100.00;99611.47;1723467;81;21511;-48
2022/05/18 05:52:24;;;;;;;1.50;0.70;;;;;;;7.53;100.00;99606.11;1722740;81;21038;-46
2022/05/18 05:54:51;;;;;;;1.37;0.70;;;;;;;7.53;100.00;99604.30;1723399;81;21801;-47
2022/05/18 05:57:17;;;;;;;2.10;0.70;;;;;;;7.54;100.00;99608.73;1722168;81;21538;-45
2022/05/18 05:59:44;;;;;;;3.13;0.70;;;;;;;7.57;100.00;99611.77;1720101;81;21366;-45
2022/05/18 06:02:15;;;;;;;2.60;0.60;;;;;;;7.61;100.00;99618.74;1723109;81;20937;-48
2022/05/18 06:04:39;;;;;;;2.80;0.60;;;;;;;7.62;100.00;99621.83;1725891;81;21018;-48
2022/05/18 06:07:07;;;;;;;1.67;0.60;;;;;;;7.63;100.00;99626.27;1728964;81;21100;-47
2022/05/18 06:09:33;;;;;;;1.00;0.50;;;;;;;7.64;100.00;99617.30;1720389;81;20919;-47
2022/05/18 06:11:59;;;;;;;3.23;0.60;;;;;;;7.67;100.00;99628.34;1722188;81;21452;-45
2022/05/18 06:14:26;;;;;;;0.87;0.50;;;;;;;7.69;100.00;99629.16;1730190;81;20892;-47
2022/05/18 06:16:54;;;;;;;1.03;0.60;;;;;;;7.68;100.00;99630.09;1691262;83;20929;-50
2022/05/18 06:19:22;;;;;;;0.90;0.50;;;;;;;7.70;100.00;99628.23;1692258;83;22348;-51
2022/05/18 06:21:50;;;;;;;1.87;0.70;;;;;;;7.72;100.00;99633.08;1687240;83;20914;-47
2022/05/18 06:24:18;;;;;;;1.40;0.60;;;;;;;7.74;100.00;99634.73;1685039;83;20971;-49
2022/05/18 06:26:44;;;;;;;2.57;0.60;;;;;;;7.75;100.00;99634.27;1723928;81;20915;-49
2022/05/18 06:29:10;;;;;;;1.40;0.70;;;;;;;7.74;100.00;99637.42;1724094;81;20978;-46
2022/05/18 06:31:37;;;;;;;0.90;0.60;;;;;;;7.72;100.00;99634.41;1726399;81;20947;-50
2022/05/18 06:34:04;;;;;;;1.80;0.67;;;;;;;7.70;100.00;99639.83;1725777;81;20923;-49
2022/05/18 06:36:31;;;;;;;2.60;0.63;;;;;;;7.73;100.00;99642.40;1724325;81;20974;-48
2022/05/18 06:38:57;;;;;;;0.77;0.50;;;;;;;7.76;100.00;99636.02;1723140;81;20931;-49
2022/05/18 06:41:24;;;;;;;1.00;0.60;;;;;;;7.78;100.00;99643.55;1723227;81;20947;-47
2022/05/18 06:43:58;;;;;;;2.20;0.57;;;;;;;7.79;100.00;99638.13;1725404;81;21092;-46
2022/05/18 06:46:25;;;;;;;1.10;0.50;;;;;;;7.85;100.00;99639.69;1725440;81;21006;-45
2022/05/18 06:48:53;;;;;;;5.60;0.57;;;;;;;7.93;100.00;99642.48;1725102;81;20923;-46
2022/05/18 06:51:22;;;;;;;2.53;0.60;;;;;;;8.03;100.00;99641.66;1725144;81;21406;-46
2022/05/18 06:53:53;;;;;;;4.20;1.13;;;;;;;8.11;100.00;99644.90;1723702;81;21058;-50
2022/05/18 06:56:20;;;;;;;1.53;0.60;;;;;;;8.13;100.00;99651.08;1725384;81;21148;-45
2022/05/18 06:58:48;;;;;;;1.73;0.60;;;;;;;8.10;100.00;99639.59;1724225;81;21464;-48
2022/05/18 07:01:15;;;;;;;0.90;0.53;;;;;;;8.11;100.00;99650.73;1727978;81;21027;-48
2022/05/18 07:03:44;;;;;;;3.97;0.50;;;;;;;8.11;100.00;99659.64;1726632;81;21027;-46
2022/05/18 07:06:11;;;;;;;2.00;0.50;;;;;;;8.06;100.00;99661.65;1730915;81;21626;-47
2022/05/18 07:08:38;;;;;;;1.40;0.50;;;;;;;8.03;100.00;99660.88;1730179;81;22200;-47
2022/05/18 07:11:05;;;;;;;2.80;0.50;;;;;;;8.01;100.00;99664.08;1726172;81;21023;-47
2022/05/18 07:13:32;;;;;;;2.87;0.50;;;;;;;8.01;100.00;99668.98;1725438;81;21076;-46
2022/05/18 07:15:59;;;;;;;1.23;0.60;;;;;;;8.01;100.00;99673.47;1724468;81;21398;-45
2022/05/18 07:18:29;;;;;;;1.83;0.50;;;;;;;7.99;100.00;99677.07;1723517;81;21187;-51
2022/05/18 07:20:59;;;;;;;1.20;0.60;;;;;;;8.01;100.00;99678.36;1727311;81;21146;-47
2022/05/18 07:23:26;;;;;;;1.83;0.60;;;;;;;7.98;100.00;99681.18;1682865;83;21382;-45
2022/05/18 07:25:53;;;;;;;1.00;0.60;;;;;;;7.96;100.00;99683.04;1725635;81;21019;-47
2022/05/18 07:28:20;;;;;;;1.93;0.50;;;;;;;7.96;100.00;99677.21;1724598;81;20974;-46
2022/05/18 07:30:46;;;;;;;0.97;0.40;;;;;;;7.96;100.00;99678.55;1724141;81;20938;-44
2022/05/18 07:33:14;;;;;;;2.30;0.40;;;;;;;7.97;100.00;99683.45;1720067;81;21112;-46
2022/05/18 07:35:41;;;;;;;1.77;0.40;;;;;;;7.99;100.00;99681.59;1721726;81;21101;-48
2022/05/18 07:38:09;;;;;;;0.57;0.33;;;;;;;8.02;100.00;99677.89;1721459;81;21379;-50
2022/05/18 07:40:36;;;;;;;1.63;0.30;;;;;;;8.04;100.00;99678.72;1725742;81;21082;-46
2022/05/18 07:43:03;;;;;;;3.33;0.40;;;;;;;8.07;100.00;99684.84;1728592;81;20915;-47
2022/05/18 07:45:29;;;;;;;0.60;0.40;;;;;;;8.07;100.00;99686.19;1720779;81;21182;-44
2022/05/18 07:47:56;;;;;;;1.30;0.40;;;;;;;8.03;100.00;99693.92;1723335;81;21111;-44
2022/05/18 07:50:24;;;;;;;0.30;0.27;;;;;;;7.99;100.00;99692.31;1722691;81;21090;-44
2022/05/18 07:52:51;;;;;;;0.73;0.40;;;;;;;8.01;100.00;99692.23;1721918;81;21493;-46
2022/05/18 07:55:17;;;;;;;0.93;0.30;;;;;;;8.02;100.00;99689.95;1720169;81;21095;-50
2022/05/18 07:57:44;;;;;;;0.37;0.20;;;;;;;8.06;100.00;99702.33;1726615;81;21116;-49
2022/05/18 08:00:12;;;;;;;0.77;0.37;;;;;;;8.11;100.00;99697.64;1720459;81;21104;-45
2022/05/18 08:02:39;;;;;;;0.63;0.30;;;;;;;8.13;100.00;99699.34;1727207;81;21056;-49
2022/05/18 08:05:06;;;;;;;1.27;0.40;;;;;;;8.17;100.00;99688.88;1725893;81;21010;-46
2022/05/18 08:07:32;;;;;;;0.40;0.30;;;;;;;8.17;100.00;99696.92;1732597;81;21026;-48
2022/05/18 08:15:36;;;;;;;1.47;0.30;;;;;;;8.25;100.00;99693.98;1726516;81;21042;-48
2022/05/18 08:18:05;;;;;;;0.60;0.30;;;;;;;8.29;100.00;99697.80;1722263;81;21093;-48
2022/05/18 08:20:31;;;;;;;2.20;0.30;;;;;;;8.36;100.00;99698.45;1717501;81;21741;-45
2022/05/18 08:22:58;;;;;;;0.83;0.30;;;;;;;8.45;100.00;99690.50;1725356;81;21126;-46
2022/05/18 08:25:24;;;;;;;0.60;0.30;;;;;;;8.51;100.00;99700.97;1732757;81;21585;-46
2022/05/18 08:27:52;;;;;;;1.10;0.50;;;;;;;8.50;100.00;99693.42;1736035;80;21539;-46
2022/05/18 08:30:20;;;;;;;0.50;0.30;;;;;;;8.47;100.00;99691.33;1727123;81;21061;-48
2022/05/18 08:32:50;;;;;;;0.70;0.33;;;;;;;8.47;100.00;99695.34;1732524;81;21030;-45
2022/05/18 08:35:17;;;;;;;0.57;0.37;;;;;;;8.46;100.00;99691.79;1729431;81;21144;-46
2022/05/18 08:37:47;;;;;;;1.17;0.40;;;;;;;8.46;100.00;99694.47;1733518;81;21046;-45
2022/05/18 08:40:34;;;;;;;2.70;0.40;;;;;;;8.46;100.00;99702.52;1726353;81;21041;-47
2022/05/18 08:43:03;;;;;;;1.50;0.47;;;;;;;8.45;100.00;99700.77;1724233;81;21161;-94
2022/05/18 08:45:33;;;;;;;3.30;0.60;;;;;;;8.44;100.00;99704.84;1727458;81;21153;-47
2022/05/18 08:48:06;;;;;;;0.93;0.60;;;;;;;8.43;100.00;99708.00;1728484;81;21117;-49
2022/05/18 08:50:33;;;;;;;1.10;0.60;;;;;;;8.42;100.00;99701.38;1729426;81;21529;-50
2022/05/18 08:53:46;;;;;;;1.60;0.70;;;;;;;8.43;100.00;99704.44;1728006;81;21421;-49
2022/05/18 08:56:24;;;;;;;2.93;0.70;;;;;;;8.43;100.00;99716.05;1695445;83;20970;-46
2022/05/18 08:58:52;;;;;;;2.37;0.73;;;;;;;8.41;100.00;99707.67;1729126;81;21078;-46
2022/05/18 09:01:23;;;;;;;8.83;0.80;;;;;;;8.43;100.00;99712.02;1728008;81;21852;-46
2022/05/18 09:03:59;;;;;;;3.93;1.00;;;;;;;8.46;100.00;99708.34;1724627;81;20935;-46
2022/05/18 09:06:37;;;;;;;3.13;0.90;;;;;;;8.51;100.00;99707.22;1730540;81;20899;-46
2022/05/18 09:12:01;;;;;;;;;;;;;;;8.46;100.00;99706.55;1709185;81;20978;-48
2022/05/18 09:14:30;;;;;;;1.73;0.90;;;;;;;8.47;100.00;99714.13;1731876;81;21081;-46
2022/05/18 09:17:25;;;;;;;4.07;1.10;;;;;;;8.46;100.00;99713.72;1702406;81;20926;-47
2022/05/18 09:20:13;;;;;;;5.20;0.90;;;;;;;8.44;100.00;99712.43;1728713;81;20914;-45
2022/05/18 09:23:03;;;;;;;3.83;1.00;;;;;;;8.43;100.00;99718.73;1733123;81;21077;-46
2022/05/18 09:26:08;;;;;;;5.97;1.17;;;;;;;8.45;100.00;99719.55;1728262;81;21113;-45
2022/05/18 09:28:53;;;;;;;4.72;1.17;;;;;;;8.46;100.00;99724.45;1723511;81;21224;-50
2022/05/18 09:31:50;;;;;;;2.17;0.78;;;;;;;8.46;100.00;99732.49;1728619;81;20950;-49
2022/05/18 09:34:44;;;;;;;0.83;0.50;;;;;;;8.42;100.00;99729.55;1728355;81;20915;-49
2022/05/18 09:37:32;;;;;;;0.80;0.60;;;;;;;8.33;100.00;99733.46;1727152;81;20998;-50
2022/05/18 09:40:25;;;;;;;0.90;0.50;;;;;;;8.27;100.00;99740.35;1667984;84;21589;-48
2022/05/18 09:43:11;;;;;;;1.33;0.40;;;;;;;8.23;100.00;99746.31;1666956;84;21754;-48
2022/05/18 09:45:41;;;;;;;1.13;0.23;;;;;;;8.25;100.00;99735.53;1731267;81;20883;-48
2022/05/18 09:48:12;;;;;;;0.63;0.30;;;;;;;8.25;100.00;99742.24;1726584;81;21031;-47
2022/05/18 09:50:39;;;;;;;0.70;0.30;;;;;;;8.26;100.00;99741.28;1725671;81;21587;-48
2022/05/18 09:53:06;;;;;;;0.60;0.30;;;;;;;8.29;100.00;99742.52;1727277;81;21082;-46
2022/05/18 09:55:33;;;;;;;0.33;0.20;;;;;;;8.31;100.00;99748.73;1728273;81;21897;-44
2022/05/18 09:58:10;;;;;;;0.40;0.23;;;;;;;8.30;100.00;99749.16;1725318;81;21371;-48
2022/05/18 10:00:37;;;;;;;0.20;0.17;;;;;;;8.33;100.00;99755.80;1727230;81;21045;-45
2022/05/18 10:08:56;;;;;;;0.67;0.10;;;;;;;8.39;100.00;99756.47;1728089;81;21818;-45
2022/05/18 10:11:32;;;;;;;0.40;0.20;;;;;;;8.42;100.00;99763.08;1736264;81;21413;-46
2022/05/18 10:14:17;;;;;;;0.80;0.30;;;;;;;8.40;100.00;99766.27;1729343;81;21842;-46
2022/05/18 10:16:48;;;;;;;0.20;0.10;;;;;;;8.34;100.00;99764.22;1730617;81;21417;-48
2022/05/18 10:19:23;;;;;;;0.40;0.20;;;;;;;8.31;100.00;99774.20;1730752;81;21385;-45
2022/05/18 10:21:52;;;;;;;;;;;;;;;8.30;100.00;99764.37;1740284;81;21647;-47
2022/05/18 10:24:29;;;;;;;1.03;0.20;;;;;;;8.30;100.00;99781.34;1731480;81;20214;-45
2022/05/18 10:27:23;;;;;;;0.40;0.30;;;;;;;8.32;100.00;99774.62;1725448;81;21028;-45
2022/05/18 10:30:16;;;;;;;2.47;0.30;;;;;;;8.32;100.00;99784.01;1694868;81;21477;-45
2022/05/18 10:33:07;;;;;;;0.67;0.23;;;;;;;8.35;100.00;99788.77;1724035;81;21518;-47
2022/05/18 10:35:50;;;;;;;0.50;0.30;;;;;;;8.38;100.00;99787.78;1729728;81;21303;-45
2022/05/18 10:41:13;;;;;;;0.60;0.43;;;;;;;8.44;100.00;99788.00;1862402;75;22588;-48
2022/05/18 10:44:02;;;;;;;0.50;0.40;;;;;;;8.40;100.00;99795.78;1838015;77;20968;-48
2022/05/18 10:46:44;;;;;;;0.50;0.47;;;;;;;8.39;100.00;99792.22;1837345;75;21578;-44
2022/05/18 10:49:30;;;;;;;0.60;0.50;;;;;;;8.40;100.00;99796.66;1836854;77;20956;-46
2022/05/18 10:52:28;;;;;;;1.07;0.50;;;;;;;8.43;100.00;99795.17;1825631;77;21001;-49
2022/05/18 10:55:09;;;;;;;0.50;0.40;;;;;;;8.51;100.00;99792.19;1833577;77;21045;-47
2022/05/18 10:57:40;;;;;;;0.97;0.50;;;;;;;8.57;100.00;99800.90;1840789;76;21013;-45
2022/05/18 11:00:11;;;;;;;2.27;0.50;;;;;;;8.65;100.00;99802.81;1842482;76;21091;-46
2022/05/18 11:02:58;;;;;;;0.93;0.60;;;;;;;8.70;100.00;99799.92;1839947;77;20961;-47
2022/05/18 11:05:41;;;;;;;2.20;0.70;;;;;;;8.72;100.00;99804.31;1838380;76;20964;-44
2022/05/18 11:08:14;;;;;;;1.17;0.60;;;;;;;8.70;100.00;99793.22;1839024;76;21545;-43
2022/05/18 11:10:55;;;;;;;0.87;0.60;;;;;;;8.66;100.00;99801.88;1840155;76;21092;-45
2022/05/18 11:13:33;;;;;;;1.23;0.40;;;;;;;8.65;100.00;99797.91;1843334;75;22338;-45
2022/05/18 11:16:11;;;;;;;0.93;0.60;;;;;;;8.67;100.00;99805.44;1842408;76;20993;-48
2022/05/18 11:19:04;;;;;;;0.80;0.50;;;;;;;8.70;100.00;99806.17;1845961;76;21095;-46
2022/05/18 11:21:59;;;;;;;1.10;0.60;;;;;;;8.75;100.00;99810.03;1841634;76;21072;-50
2022/05/18 11:25:03;;;;;;;0.90;0.60;;;;;;;8.79;100.00;99807.61;1838959;76;21081;-49
2022/05/18 11:27:43;;;;;;;0.80;0.70;;;;;;;8.83;100.00;99823.14;1840045;76;21151;-48
2022/05/18 11:30:27;;;;;;;0.87;0.70;;;;;;;8.83;100.00;99813.28;1842043;76;21339;-46
2022/05/18 11:33:10;;;;;;;0.98;0.68;;;;;;;8.84;100.00;99825.77;1838675;76;21104;-48
2022/05/18 11:36:10;;;;;;;0.87;0.57;;;;;;;8.86;100.00;99829.23;1837381;76;21033;-48
2022/05/18 11:38:57;;;;;;;0.83;0.50;;;;;;;8.87;100.00;99831.46;1841573;76;21037;-43
2022/05/18 11:42:08;;;;;;;0.60;0.50;;;;;;;8.88;100.00;99837.23;1843512;76;21102;-45
2022/05/18 11:45:16;;;;;;;0.73;0.60;;;;;;;8.89;100.00;99841.20;1845828;76;21093;-45
2022/05/18 11:47:57;;;;;;;3.17;0.70;;;;;;;8.90;100.00;99836.25;1838872;76;21011;-44
2022/05/18 11:50:53;;;;;;;1.00;0.70;;;;;;;8.89;100.00;99846.58;1806118;78;21491;-46
2022/05/18 11:53:43;;;;;;;0.60;0.60;;;;;;;8.88;100.00;99848.85;1802080;78;21057;-46
2022/05/18 11:56:49;;;;;;;0.50;0.50;;;;;;;8.86;100.00;99849.37;1717458;80;21608;-45
2022/05/18 11:59:45;;;;;;;0.80;0.60;;;;;;;8.83;100.00;99851.33;1771933;79;21505;-46
2022/05/18 12:02:46;;;;;;;0.60;0.50;;;;;;;8.83;100.00;99848.64;1779070;79;21052;-46
2022/05/18 12:05:29;;;;;;;0.60;0.40;;;;;;;8.88;100.00;99854.22;1783076;79;21049;-45
2022/05/18 12:08:40;;;;;;;1.23;0.60;;;;;;;8.93;100.00;99855.40;1776941;79;21016;-45
2022/05/18 12:11:36;;;;;;;3.27;1.20;;;;;;;8.99;100.00;99856.48;1778564;79;21670;-45
2022/05/18 12:14:34;;;;;;;3.33;1.53;;;;;;;9.02;100.00;99857.22;1714601;79;21117;-45
2022/05/18 12:17:27;;;;;;;3.37;1.57;;;;;;;9.05;100.00;99862.94;1784227;79;22210;-47